Metar Cercanos

 

LEPA - Palma De Mallorc, Spain
Distance from station: ONO 38km
Actualización: Fri, 14-May-2021 6:00am CEST
Few Clouds
Few Clouds
 Viento del SE
Viento: SE 6 km/h
Temperatura: 15°C
Rocío: 14°C
Humedad: 94%
Barómetro: 1008 hPa
Clouds: Few Clouds
Visibility: 10 km
Cloud details: Few Clouds 396 m
2021/05/14 04:00 LEPA 140400Z 14003KT 9999 FEW013 15/14 Q1008 NOSIG
LEMH - Mahon/Menorca Is, Spain
Distance from station: ENE 105km
Actualización: Fri, 14-May-2021 6:00am CEST
Muy nuboso
Muy nuboso
 Viento del SO
Viento: SO 13 km/h
Temperatura: 17°C
Rocío: 16°C
Humedad: 94%
Barómetro: 1009 hPa
Clouds: Muy nuboso
Visibility: 10 km
Cloud details: Few Clouds 183 m
Muy nuboso 305 m
2021/05/14 04:00 LEMH 140400Z 22007KT 190V250 9999 FEW006 BKN010 17/16 Q1009
 
LEIB - Ibiza/Es Codola, Spain
Distance from station: OSO 165km
Actualización: Fri, 14-May-2021 6:00am CEST
Despejado
Despejado
 Viento del ONO
Viento: ONO 13 km/h
Temperatura: 17°C
Rocío: 14°C
Humedad: 83%
Barómetro: 1010 hPa
Resumen: Despejado
Visibility: greater than 10 km
2021/05/14 04:00 LEIB 140400Z 30007KT CAVOK 17/14 Q1010 NOSIG
LEBL - Barcelona Airpor, Spain
Distance from station: NNO 225km
Actualización: Fri, 14-May-2021 6:00am CEST
Few Clouds
Few Clouds
 Viento del O
Viento: O 6 km/h
Temperatura: 14°C
Rocío: 13°C
Humedad: 94%
Barómetro: 1010 hPa
Clouds: Few Clouds
Visibility: 10 km
Cloud details: Few Clouds 1067 m
2021/05/14 04:00 LEBL 140400Z 28003KT 9999 FEW035 14/13 Q1010 NOSIG
 
LEVC - Valencia (civ/Mi, Spain
Distance from station: NO 188km
Actualización: Fri, 14-May-2021 6:00am CEST
Despejado
Despejado
 Viento del NE
Viento: NE 11 km/h
Temperatura: 17°C
Rocío: 12°C
Humedad: 73%
Barómetro: 1011 hPa
Resumen: Despejado
Visibility: greater than 10 km
2021/05/14 04:00 LEVC 140400Z 05006KT 360V080 CAVOK 17/12 Q1011 NOSIG
LEGE - Gerona/Costa Bra, Spain
Distance from station: N 276km
Actualización: Fri, 14-May-2021 6:00am CEST
Cubierto
Cubierto
 Viento del ONO
Viento: ONO 4 km/h
Temperatura: 12°C
Rocío: 10°C
Humedad: 88%
Barómetro: 1010 hPa
Clouds: Cubierto
Visibility: 10 km
Cloud details: Cubierto 1524 m
2021/05/14 04:00 LEGE 140400Z 30002KT 9999 OVC050 12/10 Q1010
 
LEAL - Alicante/El Alte, Spain
Distance from station: OSO 344km
Actualización: Fri, 14-May-2021 6:00am CEST
Few Clouds
Few Clouds
 Viento del NO
Viento: NO 24 km/h
Temperatura: 20°C
Rocío: 10°C
Humedad: 53%
Barómetro: 1012 hPa
Clouds: Few Clouds
Visibility: 10 km
Cloud details: Few Clouds 1524 m
2021/05/14 04:00 LEAL 140400Z 31013KT 9999 FEW050 20/10 Q1012 NOSIG
LEAM - Almeria Airport, Spain
Distance from station: SSO 56km
Actualización: Fri, 14-May-2021 6:00am CEST
Despejado
Despejado
 Viento del varies
Viento: varies 4 km/h
Temperatura: 16°C
Rocío: 14°C
Humedad: 88%
Barómetro: 1012 hPa
Resumen: Despejado
Visibility: greater than 10 km
2021/05/14 04:00 LEAM 140400Z VRB02KT CAVOK 16/14 Q1012
 
LEZG - Zaragoza (mil/Ci, Spain
Distance from station: NO 431km
Actualización: Fri, 14-May-2021 6:00am CEST
Few Clouds
Few Clouds
 Viento del ONO
Viento: ONO 24 km/h
Temperatura: 10°C
Sensación frio: 7°C
Rocío: 8°C
Humedad: 88%
Barómetro: 1015 hPa
Clouds: Few Clouds
Visibility: 10 km
Cloud details: Few Clouds 1524 m
2021/05/14 04:00 LEZG 140400Z 29013KT 9999 FEW050 10/08 Q1015
LEMD - Madrid/Barajas, Spain
Distance from station: ONO 234km
Actualización: Fri, 14-May-2021 6:00am CEST
Few Clouds
Few Clouds
 Viento del NO
Viento: NO 11 km/h
Temperatura: 12°C
Rocío: 6°C
Humedad: 67%
Barómetro: 1015 hPa
Clouds: Few Clouds
Visibility: 10 km
Cloud details: Few Clouds 1402 m
2021/05/14 04:00 LEMD 140400Z 31006KT 260V360 9999 FEW046 12/06 Q1015 NOSIG
 
LEGR - Granada Airport, Spain
Distance from station: OSO 62km
Actualización: Fri, 14-May-2021 6:00am CEST
Few Clouds
Few Clouds
 Viento del SSO
Viento: SSO 4 km/h
Temperatura: 12°C
Rocío: 10°C
Humedad: 88%
Barómetro: 1017 hPa
Clouds: Few Clouds
Visibility: 10 km
Cloud details: Few Clouds 914 m
2021/05/14 04:00 LEGR 140400Z 21002KT 9999 FEW030 12/10 Q1017
LEMG - Malaga (civ/Mil), Spain
Distance from station: OSO 227km
Actualización: Fri, 14-May-2021 6:00am CEST
Despejado
Despejado
 Viento del ONO
Viento: ONO 26 km/h
Temperatura: 19°C
Rocío: 12°C
Humedad: 64%
Barómetro: 1015 hPa
Resumen: Despejado
Visibility: greater than 10 km
2021/05/14 04:00 LEMG 140400Z 30014KT CAVOK 19/12 Q1015 NOSIG
 
LEZL - Sevilla (civ/Mil, Spain
Distance from station: S 318km
Actualización: Fri, 14-May-2021 6:00am CEST
Despejado
Despejado
 Viento del varies
Viento: varies 2 km/h
Temperatura: 14°C
Rocío: 10°C
Humedad: 77%
Barómetro: 1017 hPa
Resumen: Despejado
Visibility: greater than 10 km
2021/05/14 04:00 LEZL 140400Z VRB01KT CAVOK 14/10 Q1017 NOSIG
LEVT - Vitoria, Spain
Distance from station: NO 226km
Actualización: Fri, 14-May-2021 6:00am CEST
Few Clouds
Few Clouds
 Viento del SO
Viento: SO 6 km/h
Temperatura: 4°C
Rocío: 3°C
Humedad: 93%
Barómetro: 1017 hPa
Clouds: Few Clouds
Visibility: 10 km
Cloud details: Few Clouds 914 m
2021/05/14 04:00 LEVT 140400Z 23003KT 180V320 9999 FEW030 04/03 Q1017
 
LEBB - Bilbao/Sondica, Spain
Distance from station: NNO 235km
Actualización: Fri, 14-May-2021 6:00am CEST
Lluvia débil, Muy nuboso
Lluvia débil, Muy nuboso
 Viento del varies
Viento: varies 2 km/h
Temperatura: 10°C
Rocío: 10°C
Humedad: 100%
Barómetro: 1017 hPa
Resumen: Lluvia débil
Clouds: Muy nuboso
Visibility: 10 km
Cloud details: Muy nuboso 853 m
Muy nuboso 1036 m
2021/05/14 04:00 LEBB 140400Z VRB01KT 9999 -RA BKN028 BKN034 10/10 Q1017 TEMPO 3000 RA
LESO - San Sebastian/Fu, Spain
Distance from station: N 231km
Actualización: Fri, 14-May-2021 6:00am CEST
Lluvia débil, Muy nuboso
Lluvia débil, Muy nuboso
 Viento del SO
Viento: SO 19 km/h, Racha: 39 km/h
Temperatura: 11°C
Rocío: 10°C
Humedad: 94%
Barómetro: 1016 hPa
Resumen: Lluvia débil
Clouds: Muy nuboso
Visibility: 10 km
Cloud details: Parcialmente nuboso 518 m
Muy nuboso 1067 m
2021/05/14 04:00 LESO 140400Z 23010G21KT 170V270 9999 -RA SCT017 BKN035 11/10 Q1016 RERA
 
LEVD - Valladolid(Mil/C, Spain
Distance from station: ONO 239km
Actualización: Fri, 14-May-2021 6:00am CEST
Despejado
Despejado
 Viento del ONO
Viento: ONO 9 km/h
Temperatura: 4°C
Sensación frio: 2°C
Rocío: 3°C
Humedad: 93%
Barómetro: 1017 hPa
Resumen: Despejado
Visibility: greater than 10 km
2021/05/14 04:00 LEVD 140400Z AUTO 29005KT CAVOK 04/03 Q1017
LESA - Salamanca (civ/M, Spain
Distance from station: ONO 349km
Actualización: Fri, 14-May-2021 6:00am CEST
Muy nuboso
Muy nuboso
 Viento del O
Viento: O 13 km/h
Temperatura: 7°C
Sensación frio: 5°C
Rocío: 6°C
Humedad: 93%
Barómetro: 1018 hPa
Clouds: Muy nuboso
Visibility: 10 km
Cloud details: Muy nuboso 579 m
2021/05/14 04:00 LESA 140400Z AUTO 28007KT 9999 BKN019 07/06 Q1018
 
LEXJ - Santander/Paraya, Spain
Distance from station: NNO 247km
Actualización: Fri, 14-May-2021 6:00am CEST
Muy nuboso
Muy nuboso
 Viento del OSO
Viento: OSO 13 km/h
Temperatura: 11°C
Rocío: 7°C
Humedad: 77%
Barómetro: 1017 hPa
Clouds: Muy nuboso
Visibility: 10 km
Cloud details: Few Clouds 884 m
Muy nuboso 1707 m
2021/05/14 04:00 LEXJ 140400Z 24007KT 9999 FEW029 BKN056 11/07 Q1017
LEAS - Asturias/Aviles, Spain
Distance from station: NO 214km
Actualización: Fri, 14-May-2021 6:00am CEST
Few Clouds
Few Clouds
 Viento del OSO
Viento: OSO 13 km/h
Temperatura: 9°C
Sensación frio: 7°C
Rocío: 5°C
Humedad: 76%
Barómetro: 1018 hPa
Clouds: Few Clouds
Visibility: 10 km
Cloud details: Few Clouds 975 m
2021/05/14 04:00 LEAS 140400Z 25007KT 210V270 9999 FEW032 09/05 Q1018 NOSIG
 
LECO - La Coruna/Alvedr, Spain
Distance from station: ONO 222km
Actualización: Fri, 14-May-2021 6:00am CEST
Despejado
Despejado
 Viento del SSE
Viento: SSE 7 km/h
Temperatura: 6°C
Sensación frio: 4°C
Rocío: 6°C
Humedad: 100%
Barómetro: 1019 hPa
Resumen: Despejado
Visibility: greater than 10 km
2021/05/14 04:00 LECO 140400Z 16004KT 120V200 CAVOK 06/06 Q1019 NOSIG
LEVX - Vigo/Peinador, Spain
Distance from station: O 214km
Actualización: Fri, 14-May-2021 6:00am CEST
Patches of fog, Parcialmente nuboso
Patches of fog, Parcialmente nuboso
 Viento del varies
Viento: varies 4 km/h
Temperatura: 7°C
Rocío: 6°C
Humedad: 93%
Barómetro: 1019 hPa
Resumen: Patches of Fog
Clouds: Parcialmente nuboso
Visibility: 5 km
Cloud details: Parcialmente nuboso 122 m
2021/05/14 04:00 LEVX 140400Z VRB02KT 5000 0400S R01/1100U BCFG SCT004 07/06 Q1019 NOSIG